OIFK  Kashan  Airport

Iran

Add Bookmark
ICAO OIFK
Type Airport
Status Operational
Latitude
33° 53' 43" N
33.895302
Longitude
51° 34' 37" E
51.577000
Local (DST + 5) UTC (GMT + 4)
Apr 28, 2015 06:32 Apr 28, 2015 02:02
Sunrise-Sunset Local UTC
Begin Civil Twilight 05:50 01:20
Sunrise 06:16 01:46
Sunset 07:45 15:15
End Civil Twilight 08:12 15:42
VFR
VFR
MVFR
MVFR
IFR
VFR
LIFR
VFR
Unknown
Unavailable

Current Weather

METAR Observed VFR
OIFK 271000Z 00000KT CAVOK 26/M09 Q1021 Mon, Apr 27, 2015 @ 10:00 UTC
(16 Hours, 2 Minutes ago)
Visual Flight Rules
Wind Visibility Conditions
Calm 10 km or more
  • No significant weather
Temperatures Readings Precipitation
Current Temp
26°C
79°F
Dewpoint
-9°C
16°F
Humidity 9%
Altimeter 30.15" Hg
Sea Level Pressure 1,021 mb
Field Elevation
982 m
3,222 ft
None Recorded
-
-

CheckWX.com is intended as a tool to help pilots better visualize weather data. It is not intended as a substitute for an official weather briefing obtained from a Flight Service Station. CheckWX.com does not meet the FAA requirements for an official pre-flight weather briefing. Therefore, it's important that pilots still call and obtain an official FSS pre-flight weather briefing.

© 2007-2015 CheckWX.com
02:02:56 UTC